Time;durP1;ratioP1;P1;durP2;ratioP2;P2;SDS_P1;SDS_P2;PMS_P1;PMS_P2;Temp;Humidity;BMP_temperature;BMP_pressure;BME280_temperature;BME280_humidity;BME280_pressure;Samples;Min_cycle;Max_cycle;Signal;HPM_P1;HPM_P2
2022/04/21 00:00:13;;;;;;;7.73;7.20;;;6.20;99.90;;;6.92;67.87;97370.66;5279026;28;20671;-52
2022/04/21 00:02:46;;;;;;;8.17;7.53;;;6.10;99.90;;;6.91;67.43;97366.38;5280735;28;20730;-55
2022/04/21 00:05:20;;;;;;;8.40;7.67;;;6.10;99.90;;;6.86;67.63;97365.22;5278664;28;20656;-54
2022/04/21 00:07:53;;;;;;;8.43;7.73;;;6.00;99.90;;;6.85;67.34;97368.53;5277435;28;20285;-52
2022/04/21 00:10:28;;;;;;;8.47;7.77;;;6.00;99.90;;;6.75;67.62;97362.88;5277197;28;20621;-53
2022/04/21 00:13:01;;;;;;;9.27;8.47;;;6.00;99.90;;;6.59;68.21;97365.22;5280619;28;20205;-54
2022/04/21 00:15:36;;;;;;;9.03;8.23;;;5.90;99.90;;;6.68;68.28;97363.25;5279930;28;20226;-55
2022/04/21 00:18:09;;;;;;;9.70;8.80;;;5.90;99.90;;;6.64;68.54;97368.94;5281928;28;20245;-53
2022/04/21 00:20:42;;;;;;;8.63;8.03;;;5.80;99.90;;;6.69;68.31;97362.47;5279228;28;20286;-54
2022/04/21 00:23:26;;;;;;;9.90;9.10;;;5.90;99.90;;;6.72;69.78;97362.69;5280423;28;20224;-55
2022/04/21 00:26:01;;;;;;;9.13;8.43;;;5.90;99.90;;;6.61;69.49;97347.53;5275194;28;20309;-54
2022/04/21 00:28:34;;;;;;;10.07;9.37;;;5.80;99.90;;;6.67;69.77;97345.41;5280600;28;20190;-55
2022/04/21 00:31:09;;;;;;;10.10;9.20;;;5.90;99.90;;;6.66;70.09;97348.72;5277041;28;20203;-53
2022/04/21 00:33:42;;;;;;;10.13;9.23;;;5.90;99.90;;;6.66;70.30;97349.56;5277281;28;20295;-52
2022/04/21 00:36:15;;;;;;;9.20;8.60;;;5.80;99.90;;;6.67;69.88;97343.75;5281956;28;20301;-56
2022/04/21 00:38:48;;;;;;;10.90;10.00;;;5.80;99.90;;;6.73;71.33;97346.66;5283156;28;20339;-54
2022/04/21 00:41:21;;;;;;;8.77;8.17;;;6.00;99.90;;;6.81;69.87;97346.25;5281505;28;20323;-50
2022/04/21 00:43:54;;;;;;;8.20;7.60;;;5.90;99.90;;;6.74;69.26;97345.88;5277042;28;20310;-50
2022/04/21 00:46:28;;;;;;;7.60;7.07;;;5.80;99.90;;;6.67;69.88;97346.28;5280651;28;20315;-50
2022/04/21 00:49:01;;;;;;;8.10;7.60;;;5.80;99.90;;;6.66;70.01;97341.97;5280595;28;20289;-53
2022/04/21 00:51:35;;;;;;;8.30;7.67;;;5.80;99.90;;;6.66;69.33;97341.97;5278342;28;20226;-50
2022/04/21 00:54:09;;;;;;;7.97;7.37;;;5.70;99.90;;;6.64;69.68;97335.94;5283011;28;20202;-50
2022/04/21 00:56:44;;;;;;;8.67;7.97;;;5.70;99.90;;;6.51;69.59;97336.78;5283388;28;20260;-49
2022/04/21 00:59:17;;;;;;;8.40;7.77;;;5.60;99.90;;;6.44;70.12;97342.28;5278056;28;20808;-50
2022/04/21 01:04:44;;;;;;;9.00;8.20;;;5.50;99.90;;;6.47;70.88;97336.50;5278823;28;20246;-50
2022/04/21 01:07:18;;;;;;;9.10;8.40;;;5.50;99.90;;;6.44;71.01;97336.28;5273420;28;20267;-53
2022/04/21 01:09:54;;;;;;;9.43;8.67;;;5.50;99.90;;;6.43;70.84;97332.00;5281205;28;20648;-53
2022/04/21 01:12:28;;;;;;;9.40;8.70;;;5.50;99.90;;;6.39;71.05;97327.53;5283393;28;20219;-51
2022/04/21 01:15:01;;;;;;;9.20;8.53;;;5.50;99.90;;;6.33;71.22;97328.00;5277301;28;20236;-52
2022/04/21 01:17:37;;;;;;;9.87;9.17;;;5.40;99.90;;;6.28;71.53;97332.78;5275660;28;20302;-51
2022/04/21 01:20:15;;;;;;;8.67;8.07;;;5.40;99.90;;;6.26;71.33;97334.31;5283495;28;20313;-51
2022/04/21 01:22:48;;;;;;;9.73;9.00;;;5.30;99.90;;;6.22;72.10;97342.53;5282440;28;20232;-53
2022/04/21 01:25:22;;;;;;;9.67;8.97;;;5.40;99.90;;;6.19;72.69;97339.78;5280599;28;20716;-55
2022/04/21 01:27:58;;;;;;;10.07;9.20;;;5.40;99.90;;;6.16;72.55;97334.53;5284010;27;20225;-50
2022/04/21 01:30:31;;;;;;;10.53;9.70;;;5.30;99.90;;;6.06;72.11;97344.84;5282938;28;20629;-51
2022/04/21 01:33:05;;;;;;;11.23;10.27;;;5.20;99.90;;;5.92;72.70;97335.41;5282639;28;20234;-54
2022/04/21 01:35:40;;;;;;;10.67;9.77;;;5.10;99.90;;;6.01;72.11;97330.97;5285407;28;20219;-54
2022/04/21 01:41:10;;;;;;;11.20;10.20;;;5.20;99.90;;;6.13;72.76;97331.78;5284722;28;20194;-50
2022/04/21 01:43:43;;;;;;;10.87;9.97;;;5.30;99.90;;;6.07;72.03;97337.34;5277620;28;20286;-51
2022/04/21 01:46:17;;;;;;;11.23;10.43;;;5.20;99.90;;;5.99;72.69;97333.41;5282729;28;20230;-51
2022/04/21 01:48:50;;;;;;;10.77;9.77;;;5.10;99.90;;;5.91;73.07;97329.44;5283554;28;20192;-50
2022/04/21 01:51:24;;;;;;;10.40;9.70;;;5.10;99.90;;;5.91;73.50;97328.56;5284471;28;20618;-50
2022/04/21 01:53:57;;;;;;;11.33;10.53;;;5.10;99.90;;;5.87;73.59;97328.38;5282754;28;20237;-51
2022/04/21 01:56:31;;;;;;;11.80;10.97;;;5.10;99.90;;;5.89;73.86;97325.94;5284255;28;20218;-51
2022/04/21 01:59:04;;;;;;;12.97;11.90;;;5.10;99.90;;;5.83;73.85;97323.88;5282009;28;20660;-52
2022/04/21 02:01:37;;;;;;;12.73;11.63;;;5.10;99.90;;;5.84;73.88;97325.66;5281940;28;20245;-56
2022/04/21 02:04:11;;;;;;;12.40;11.50;;;5.10;99.90;;;5.90;74.46;97321.75;5279142;28;20215;-52
2022/04/21 02:06:45;;;;;;;11.47;10.63;;;5.10;99.90;;;5.86;74.15;97320.66;5285885;28;20269;-49
2022/04/21 02:09:18;;;;;;;12.77;11.77;;;5.10;99.90;;;5.88;74.38;97330.13;5282370;28;20191;-49
2022/04/21 02:11:51;;;;;;;12.53;11.43;;;5.10;99.90;;;5.94;74.05;97321.22;5274545;28;20287;-52
2022/04/21 02:14:24;;;;;;;11.70;10.80;;;5.10;99.90;;;5.86;74.00;97316.47;5281017;27;20637;-51
2022/04/21 02:16:57;;;;;;;11.10;10.00;;;5.10;99.90;;;5.85;73.84;97313.84;5283442;27;20226;-50
2022/04/21 02:19:30;;;;;;;10.53;9.73;;;5.00;99.90;;;5.87;72.89;97320.78;5282574;28;20298;-51
2022/04/21 02:22:05;;;;;;;12.17;11.17;;;4.90;99.90;;;5.85;73.37;97316.38;5282011;28;20856;-53
2022/04/21 02:24:38;;;;;;;11.50;10.60;;;4.90;99.90;;;5.84;73.35;97310.44;5280722;28;20320;-55
2022/04/21 02:27:11;;;;;;;11.07;10.37;;;4.90;99.90;;;5.79;73.79;97309.25;5278119;28;20309;-49
2022/04/21 02:29:44;;;;;;;12.03;10.93;;;4.80;99.90;;;5.68;74.37;97302.56;5282741;28;20223;-52
2022/04/21 02:32:17;;;;;;;11.77;10.90;;;4.90;99.90;;;5.55;74.39;97305.06;5277136;28;20633;-50
2022/04/21 02:34:51;;;;;;;11.80;10.83;;;4.70;99.90;;;5.54;74.20;97310.91;5286694;27;20217;-54
2022/04/21 02:37:26;;;;;;;12.27;11.17;;;4.70;99.90;;;5.52;75.46;97309.91;5278909;28;20227;-53
2022/04/21 02:39:59;;;;;;;13.17;12.17;;;4.70;99.90;;;5.53;74.81;97315.09;5281158;28;20259;-54
2022/04/21 02:42:32;;;;;;;12.27;11.27;;;4.70;99.90;;;5.55;75.53;97303.44;5276715;28;20196;-50
2022/04/21 02:45:07;;;;;;;14.03;13.03;;;4.70;99.90;;;5.57;75.85;97300.97;5275457;28;20282;-50
2022/04/21 02:47:43;;;;;;;12.50;11.47;;;4.70;99.90;;;5.55;75.45;97302.53;5280611;28;20195;-56
2022/04/21 02:50:18;;;;;;;13.47;12.47;;;4.70;99.90;;;5.52;75.34;97295.63;5280733;28;20249;-50
2022/04/21 02:52:53;;;;;;;13.37;12.33;;;4.70;99.90;;;5.59;75.59;97291.81;5276880;28;20285;-51
2022/04/21 02:58:17;;;;;;;13.37;12.47;;;4.70;99.90;;;5.46;76.23;97291.78;5282095;28;20280;-52
2022/04/21 03:00:50;;;;;;;13.17;12.17;;;4.70;99.90;;;5.49;75.69;97289.44;5281735;28;20311;-53
2022/04/21 03:03:23;;;;;;;13.07;11.97;;;4.70;99.90;;;5.48;75.72;97295.28;5276110;28;20233;-50
2022/04/21 03:05:56;;;;;;;13.97;12.87;;;4.70;99.90;;;5.50;76.11;97293.75;5283665;28;20321;-52
2022/04/21 03:08:31;;;;;;;14.77;13.53;;;4.70;99.90;;;5.50;76.22;97294.63;5274603;28;20297;-50
2022/04/21 03:11:04;;;;;;;13.90;12.80;;;4.70;99.90;;;5.46;76.45;97291.78;5280514;28;20374;-54
2022/04/21 03:13:37;;;;;;;14.07;12.90;;;4.70;99.90;;;5.47;75.96;97283.41;5271537;28;20293;-54
2022/04/21 03:16:10;;;;;;;12.27;11.27;;;4.60;99.90;;;5.52;75.30;97282.94;5278194;28;20249;-50
2022/04/21 03:18:43;;;;;;;12.27;11.27;;;4.60;99.90;;;5.50;74.77;97284.50;5282627;28;20388;-54
2022/04/21 03:24:20;;;;;;;11.83;10.83;;;4.30;99.90;;;5.27;75.03;97275.34;5260719;28;20806;-50
2022/04/21 03:26:54;;;;;;;12.03;11.10;;;4.30;99.90;;;5.25;74.98;97283.59;5281734;28;20308;-51
2022/04/21 03:29:27;;;;;;;12.37;11.27;;;4.30;99.90;;;5.11;75.75;97273.41;5283730;28;20235;-53
2022/04/21 03:32:00;;;;;;;12.33;11.40;;;4.20;99.90;;;5.13;76.41;97281.13;5279235;28;20585;-54
2022/04/21 03:34:33;;;;;;;12.17;11.17;;;4.20;99.90;;;5.16;75.86;97277.13;5282812;28;20220;-52
2022/04/21 03:37:07;;;;;;;13.17;12.00;;;4.20;99.90;;;5.09;76.06;97276.59;5279482;28;20350;-52
2022/04/21 03:39:43;;;;;;;11.67;10.67;;;4.20;99.90;;;5.08;75.87;97283.31;5281965;28;20755;-51
2022/04/21 03:42:23;;;;;;;12.70;11.70;;;4.20;99.90;;;5.09;75.78;97284.19;5273191;28;20243;-50
2022/04/21 03:44:56;;;;;;;13.00;11.83;;;4.10;99.90;;;5.01;76.20;97285.31;5279374;28;20290;-53
2022/04/21 03:47:29;;;;;;;12.30;11.40;;;4.10;99.90;;;5.03;76.27;97278.72;5278028;28;20253;-52
2022/04/21 03:50:02;;;;;;;12.80;11.80;;;4.20;99.90;;;5.01;75.63;97275.19;5276236;27;20232;-50
2022/04/21 03:52:35;;;;;;;13.10;12.10;;;4.10;99.90;;;4.99;75.78;97281.84;5282484;28;20278;-50
2022/04/21 03:55:11;;;;;;;12.83;11.83;;;4.10;99.90;;;4.98;75.59;97280.97;5278117;28;20242;-50
2022/04/21 03:57:44;;;;;;;14.17;12.97;;;4.00;99.90;;;4.84;76.46;97281.66;5284859;28;20662;-53
2022/04/21 04:00:17;;;;;;;13.77;12.67;;;3.90;99.90;;;4.77;76.76;97275.25;5280342;28;20263;-51
2022/04/21 04:02:50;;;;;;;13.07;12.00;;;3.90;99.90;;;4.62;76.86;97282.66;5270929;28;20670;-54
2022/04/21 04:05:24;;;;;;;13.33;12.20;;;3.70;99.90;;;4.61;76.71;97280.06;5281761;28;20243;-52
2022/04/21 04:10:52;;;;;;;13.77;12.77;;;3.70;99.90;;;4.59;77.61;97279.06;5270396;28;20245;-53
2022/04/21 04:13:26;;;;;;;14.80;13.57;;;3.80;99.90;;;4.66;77.41;97286.28;5276748;28;20279;-51
2022/04/21 04:16:00;;;;;;;13.90;12.80;;;3.80;99.90;;;4.55;78.48;97283.03;5280752;28;20702;-51
2022/04/21 04:18:33;;;;;;;15.73;14.53;;;3.80;99.90;;;4.56;78.17;97281.38;5285288;28;20627;-57
2022/04/21 04:21:07;;;;;;;15.07;13.77;;;3.80;99.90;;;4.55;78.47;97282.13;5277005;28;20258;-56
2022/04/21 04:23:40;;;;;;;14.17;12.97;;;3.80;99.90;;;4.54;78.24;97286.31;5277604;28;20282;-52
2022/04/21 04:26:14;;;;;;;15.50;14.30;;;3.80;99.90;;;4.58;78.78;97284.88;5280075;28;20313;-54
2022/04/21 04:28:49;;;;;;;15.53;14.33;;;3.80;99.90;;;4.64;78.91;97288.72;5282142;28;20697;-50
2022/04/21 04:31:22;;;;;;;15.70;14.37;;;3.90;99.90;;;4.59;78.98;97291.72;5280932;28;20283;-54
2022/04/21 04:33:55;;;;;;;15.37;14.17;;;3.90;99.90;;;4.58;78.59;97282.34;5274432;28;20242;-49
2022/04/21 04:36:28;;;;;;;15.83;14.63;;;3.80;99.90;;;4.61;79.06;97292.72;5282389;28;20240;-51
2022/04/21 04:39:01;;;;;;;17.73;16.07;;;3.80;99.90;;;4.59;78.26;97286.66;5277777;28;20204;-52
2022/04/21 04:44:26;;;;;;;15.53;14.23;;;3.80;99.90;;;4.43;78.73;97288.06;5279120;28;20283;-53
2022/04/21 04:46:58;;;;;;;16.37;15.07;;;3.70;99.90;;;4.40;78.83;97286.97;5281739;28;20215;-52
2022/04/21 04:49:31;;;;;;;16.70;15.20;;;3.60;99.90;;;4.44;78.58;97279.72;5280225;28;20199;-50
2022/04/21 04:52:05;;;;;;;17.30;15.70;;;3.70;99.90;;;4.58;78.68;97277.28;5274111;28;20294;-52
2022/04/21 04:54:38;;;;;;;15.73;14.47;;;3.70;99.90;;;4.68;78.60;97275.50;5282636;28;20246;-50
2022/04/21 04:57:13;;;;;;;16.97;15.60;;;3.90;99.90;;;4.84;78.25;97280.00;5284245;28;20234;-50
2022/04/21 04:59:46;;;;;;;16.93;15.53;;;4.00;99.90;;;4.87;77.63;97281.88;5284450;28;20293;-50
2022/04/21 05:02:20;;;;;;;16.77;15.47;;;4.10;99.90;;;4.90;78.26;97280.41;5277500;28;20203;-51
2022/04/21 05:04:53;;;;;;;17.10;15.73;;;4.10;99.90;;;4.96;78.75;97275.78;5276834;28;20620;-52
2022/04/21 05:07:26;;;;;;;18.43;16.90;;;4.20;99.90;;;4.97;78.33;97274.13;5287436;28;20222;-54
2022/04/21 05:09:59;;;;;;;24.37;22.20;;;4.20;99.90;;;4.80;78.36;97272.94;5280120;28;20651;-55
2022/04/21 05:12:34;;;;;;;23.60;21.50;;;4.00;99.90;;;4.94;78.84;97279.84;5284753;28;20191;-56
2022/04/21 05:15:08;;;;;;;18.87;17.33;;;4.20;99.90;;;4.97;78.68;97276.66;5287682;28;20669;-50
2022/04/21 05:17:42;;;;;;;19.83;18.23;;;4.20;99.90;;;5.07;78.70;97266.38;5281680;28;20357;-52
2022/04/21 05:20:31;;;;;;;19.13;17.43;;;4.30;99.90;;;5.27;78.11;97269.41;5283858;28;20227;-52
2022/04/21 05:23:07;;;;;;;19.73;18.03;;;4.50;99.90;;;5.60;78.26;97273.28;5281466;28;20248;-53
2022/04/21 05:25:40;;;;;;;18.57;17.03;;;4.80;99.90;;;6.03;76.82;97273.59;5277733;28;20875;-53
2022/04/21 05:28:16;;;;;;;17.50;16.10;;;5.10;99.90;;;6.55;75.19;97276.94;5281728;28;20752;-54
2022/04/21 05:30:58;;;;;;;17.27;15.67;;;5.50;99.90;;;7.13;72.99;97267.84;5280884;28;20187;-53
2022/04/21 05:33:35;;;;;;;16.13;14.83;;;6.00;99.90;;;7.66;70.88;97262.50;5280384;28;20202;-52
2022/04/21 05:36:10;;;;;;;14.67;13.57;;;6.50;99.90;;;7.91;67.24;97263.94;5282154;28;20230;-51
2022/04/21 05:38:45;;;;;;;16.37;15.17;;;6.80;99.90;;;8.26;66.81;97258.28;5284698;28;20230;-56
2022/04/21 05:41:19;;;;;;;16.83;15.20;;;7.00;99.90;;;8.71;65.70;97255.69;5280313;28;20250;-52
2022/04/21 05:43:54;;;;;;;15.70;14.50;;;7.40;99.90;;;9.02;64.19;97253.13;5278208;28;20203;-54
2022/04/21 05:46:28;;;;;;;16.57;15.27;;;7.60;99.90;;;9.42;63.05;97261.19;5275491;28;20269;-54
2022/04/21 05:49:02;;;;;;;15.90;14.60;;;8.00;99.90;;;9.46;62.23;97268.19;5277915;28;20303;-55
2022/04/21 05:51:36;;;;;;;16.63;15.33;;;8.10;99.90;;;9.52;61.95;97265.06;5274257;28;20240;-57
2022/04/21 05:54:10;;;;;;;15.73;14.40;;;8.10;99.90;;;9.86;60.83;97259.13;5272530;28;20236;-53
2022/04/21 05:56:45;;;;;;;15.90;14.50;;;8.40;99.90;;;10.15;60.16;97258.00;5274835;28;20250;-54
2022/04/21 05:59:19;;;;;;;15.80;14.50;;;8.60;99.40;;;10.45;58.64;97252.66;5275290;28;20413;-56
2022/04/21 06:01:52;;;;;;;16.60;15.20;;;8.80;99.10;;;10.58;58.82;97248.19;5277144;28;20761;-55
2022/04/21 06:04:25;;;;;;;15.70;14.50;;;9.00;98.90;;;10.58;59.79;97244.75;5285095;28;20534;-52
2022/04/21 06:06:58;;;;;;;15.63;14.43;;;9.20;98.50;;;10.90;58.13;97242.81;5276221;28;20318;-53
2022/04/21 06:09:31;;;;;;;15.80;14.60;;;9.40;98.30;;;11.46;56.87;97241.91;5275108;28;20621;-52
2022/04/21 06:12:09;;;;;;;16.10;14.70;;;9.70;97.70;;;11.71;55.89;97239.59;5279900;28;20498;-54
2022/04/21 06:14:45;;;;;;;15.57;14.43;;;10.00;97.30;;;12.26;54.15;97230.78;5270066;28;20279;-53
2022/04/21 06:17:18;;;;;;;16.63;15.13;;;10.30;96.50;;;12.51;53.51;97224.94;5279126;28;20291;-55
2022/04/21 06:19:51;;;;;;;15.38;14.07;;;10.50;96.10;;;12.63;53.33;97225.41;5280302;28;20709;-55
2022/04/21 06:22:24;;;;;;;16.27;14.95;;;10.60;96.10;;;12.99;50.80;97227.66;5269842;28;20310;-55
2022/04/21 06:24:57;;;;;;;16.15;14.68;;;10.80;95.00;;;13.34;51.09;97230.66;5261396;28;20218;-56
2022/04/21 06:27:30;;;;;;;14.63;13.35;;;11.20;94.60;;;13.72;50.17;97223.41;5274453;28;20239;-53
2022/04/21 06:30:05;;;;;;;15.73;14.43;;;11.50;94.30;;;13.96;49.67;97234.53;5269349;28;20299;-54
2022/04/21 06:32:38;;;;;;;15.40;14.10;;;11.60;93.50;;;14.30;48.20;97220.19;5276681;28;20225;-53
2022/04/21 06:35:12;;;;;;;14.90;13.55;;;12.10;92.90;;;14.52;47.91;97228.66;5279321;28;20292;-53
2022/04/21 06:37:46;;;;;;;15.85;14.35;;;12.30;92.60;;;14.97;46.79;97230.88;5277803;28;20278;-57
2022/04/21 06:40:19;;;;;;;15.40;14.10;;;12.60;92.00;;;15.23;46.04;97226.47;5278680;28;20234;-54
2022/04/21 06:42:52;;;;;;;14.95;13.75;;;13.00;91.30;;;15.21;46.42;97216.13;5275701;28;20491;-53
2022/04/21 06:48:18;;;;;;;15.27;13.98;;;13.20;90.70;;;15.51;44.99;97216.13;5272885;28;20195;-57
2022/04/21 06:50:52;;;;;;;16.02;14.82;;;13.20;90.70;;;15.38;45.64;97215.72;5276220;28;20671;-54
2022/04/21 06:53:25;;;;;;;15.45;14.07;;;13.10;90.80;;;14.94;46.23;97220.50;5272344;28;20651;-55
2022/04/21 06:55:58;;;;;;;14.98;13.95;;;13.10;90.50;;;15.25;46.99;97215.41;5275850;28;20322;-57
2022/04/21 06:58:32;;;;;;;15.02;13.85;;;13.10;91.40;;;15.49;46.41;97212.63;5281788;28;20605;-57
2022/04/21 07:01:06;;;;;;;14.63;13.43;;;13.50;90.80;;;15.83;44.71;97215.28;5275201;28;20742;-56
2022/04/21 07:03:40;;;;;;;14.88;13.60;;;14.00;89.10;;;15.97;45.08;97216.50;5274589;28;20662;-56
2022/04/21 07:06:13;;;;;;;15.40;14.10;;;14.20;90.00;;;16.32;44.61;97219.06;5274763;28;20667;-53
2022/04/21 07:08:47;;;;;;;14.55;13.45;;;14.30;89.00;;;16.15;44.49;97218.66;5277724;28;20282;-57
2022/04/21 07:11:22;;;;;;;13.10;12.10;;;14.60;87.60;;;16.20;44.02;97214.50;5271010;28;20319;-57
2022/04/21 07:13:55;;;;;;;13.38;12.38;;;14.40;87.20;;;16.28;44.05;97217.22;5279998;28;20223;-55
2022/04/21 07:16:29;;;;;;;13.57;12.55;;;14.60;87.00;;;16.20;44.11;97220.50;5270486;28;20215;-56
2022/04/21 07:19:02;;;;;;;13.77;12.65;;;14.70;86.80;;;16.52;42.66;97215.25;5270224;28;20325;-53
2022/04/21 07:21:35;;;;;;;12.38;11.48;;;14.70;85.50;;;16.64;42.38;97212.94;5272125;28;20754;-57
2022/04/21 07:24:09;;;;;;;14.30;13.10;;;14.80;85.70;;;16.89;42.27;97213.53;5275139;28;20230;-55
2022/04/21 07:26:42;;;;;;;12.95;11.90;;;15.10;85.30;;;17.18;41.60;97213.28;5276970;28;20247;-58
2022/04/21 07:29:15;;;;;;;12.13;11.15;;;15.20;84.60;;;16.78;42.75;97210.72;5274460;28;20204;-55
2022/04/21 07:31:50;;;;;;;12.32;11.43;;;15.00;85.50;;;17.10;40.94;97216.56;5278954;28;20792;-57
2022/04/21 07:34:23;;;;;;;13.02;11.90;;;15.40;82.40;;;17.06;41.25;97212.19;5273861;28;20205;-55
2022/04/21 07:36:57;;;;;;;11.70;10.75;;;15.30;82.40;;;17.45;41.18;97215.53;5274942;28;20310;-58
2022/04/21 07:39:32;;;;;;;11.43;10.52;;;15.50;82.90;;;17.00;41.32;97217.22;5277894;28;20223;-57
2022/04/21 07:42:06;;;;;;;13.35;12.13;;;15.50;82.20;;;17.16;41.29;97214.94;5276147;28;20224;-57
2022/04/21 07:44:40;;;;;;;12.23;11.32;;;15.50;82.60;;;17.20;41.71;97217.63;5276131;28;20616;-56
2022/04/21 07:47:14;;;;;;;11.70;10.90;;;15.70;82.60;;;16.95;41.70;97216.25;5281882;28;20629;-58
2022/04/21 07:49:48;;;;;;;11.18;10.43;;;15.40;81.90;;;16.96;42.20;97219.69;5270502;28;20199;-57
2022/04/21 07:55:22;;;;;;;12.40;11.20;;;15.80;79.70;;;16.80;42.31;97210.75;5272280;28;20258;-53
2022/04/21 07:57:57;;;;;;;11.07;10.18;;;15.70;81.50;;;17.02;41.51;97218.09;5276013;28;20669;-55
2022/04/21 08:00:30;;;;;;;10.07;9.27;;;15.90;81.00;;;17.23;40.81;97212.53;5281092;27;20302;-55
2022/04/21 08:03:05;;;;;;;10.32;9.63;;;15.90;80.10;;;16.34;42.07;97227.69;5274781;28;20247;-53
2022/04/21 08:05:41;;;;;;;9.20;8.50;;;15.30;80.80;;;16.44;42.44;97214.19;5279186;28;20219;-53
2022/04/21 08:08:14;;;;;;;9.57;8.88;;;15.50;81.80;;;16.55;41.55;97217.91;5280922;28;20199;-50
2022/04/21 08:10:47;;;;;;;9.18;8.57;;;15.70;79.40;;;15.77;42.44;97218.56;5276928;28;20223;-51
2022/04/21 08:13:20;;;;;;;10.25;9.45;;;15.00;80.40;;;15.61;42.84;97212.06;5278847;28;20262;-54
2022/04/21 08:15:54;;;;;;;9.70;9.00;;;15.10;80.00;;;15.85;43.56;97201.59;5279012;28;20272;-53
2022/04/21 08:18:28;;;;;;;8.82;8.20;;;15.00;81.80;;;16.35;43.01;97201.94;5284083;28;20200;-53
2022/04/21 08:21:01;;;;;;;7.93;7.32;;;15.60;80.80;;;16.29;42.65;97195.78;5278106;27;20209;-51
2022/04/21 08:32:33;;;;;;;8.13;7.57;;;15.50;80.90;;;16.36;43.60;97189.91;5273333;28;20564;-52
2022/04/21 08:33:09;;;;;;;7.72;7.22;;;15.90;79.60;;;16.56;43.61;97183.50;5278931;28;20261;-53
2022/04/21 08:35:45;;;;;;;7.88;7.38;;;16.10;81.10;;;16.75;41.67;97194.25;5276742;28;20231;-54
2022/04/21 08:38:19;;;;;;;7.75;7.25;;;16.20;78.30;;;16.64;41.98;97189.72;5279359;28;20291;-53
2022/04/21 08:40:55;;;;;;;8.48;7.78;;;16.00;79.50;;;16.61;41.27;97191.38;5284184;28;20598;-53
2022/04/21 08:43:29;;;;;;;8.60;7.90;;;16.00;77.60;;;16.50;40.94;97183.38;5276665;28;20214;-54
2022/04/21 08:46:04;;;;;;;8.70;8.00;;;15.90;77.70;;;16.03;43.28;97180.56;5278316;28;20591;-54
2022/04/21 08:48:38;;;;;;;9.30;8.70;;;15.60;80.00;;;16.00;42.70;97180.47;5280138;28;20566;-54
2022/04/21 08:51:13;;;;;;;8.70;8.00;;;15.60;79.30;;;16.36;43.51;97174.44;5275666;28;20238;-55
2022/04/21 08:53:46;;;;;;;7.85;7.25;;;15.70;80.90;;;16.45;43.64;97174.66;5270993;28;20219;-54
2022/04/21 08:56:20;;;;;;;8.60;7.90;;;15.80;81.00;;;16.55;42.29;97178.34;5278742;28;20309;-52
2022/04/21 08:58:53;;;;;;;9.25;8.55;;;15.90;79.70;;;16.26;42.35;97175.94;5284447;28;20196;-52
2022/04/21 09:01:26;;;;;;;8.70;8.05;;;15.70;78.90;;;16.50;40.25;97178.22;5281036;28;20760;-53
2022/04/21 09:04:00;;;;;;;9.52;8.82;;;15.80;77.00;;;16.34;41.90;97169.28;5273023;28;20219;-54
2022/04/21 09:06:39;;;;;;;9.07;8.45;;;15.50;79.00;;;16.10;42.94;97184.16;5271889;28;20219;-50
2022/04/21 09:09:17;;;;;;;8.93;8.10;;;15.50;80.00;;;16.23;42.09;97167.28;5277710;28;20290;-51
2022/04/21 09:11:52;;;;;;;9.32;8.63;;;15.30;79.90;;;16.30;43.02;97169.16;5273315;28;20279;-52
2022/04/21 09:14:25;;;;;;;10.00;9.05;;;15.50;81.20;;;16.41;43.59;97162.53;5281164;28;20295;-50
2022/04/21 09:17:05;;;;;;;8.95;8.25;;;15.60;81.80;;;16.40;43.98;97156.50;5281378;28;20760;-53
2022/04/21 09:19:56;;;;;;;9.07;8.38;;;15.50;82.10;;;16.66;43.62;97158.81;5283014;28;20207;-52
2022/04/21 09:22:34;;;;;;;8.95;8.35;;;15.80;82.40;;;16.79;42.53;97154.78;5279088;28;20311;-53
2022/04/21 09:25:08;;;;;;;9.23;8.55;;;16.00;80.30;;;16.56;42.69;97159.41;5284111;28;20673;-49
2022/04/21 09:27:44;;;;;;;8.68;7.97;;;15.70;80.90;;;16.64;43.13;97166.50;5282718;28;20677;-50
2022/04/21 09:30:18;;;;;;;8.00;7.40;;;15.80;81.50;;;16.88;43.17;97153.28;5272855;28;20215;-55
2022/04/21 09:32:55;;;;;;;8.25;7.65;;;16.30;81.70;;;17.04;44.35;97153.59;5269833;28;20257;-53
2022/04/21 09:35:33;;;;;;;8.18;7.60;;;16.50;82.20;;;17.14;41.09;97146.88;5277852;28;20307;-52
2022/04/21 09:38:09;;;;;;;8.60;7.80;;;16.50;78.30;;;16.96;40.85;97147.41;5273737;28;20256;-55
2022/04/21 09:40:47;;;;;;;8.38;7.78;;;16.60;76.60;;;16.59;42.45;97141.44;5279404;28;20207;-50
2022/04/21 09:43:28;;;;;;;7.97;7.47;;;16.10;79.00;;;16.47;42.56;97144.59;5275763;28;20762;-52
2022/04/21 09:46:16;;;;;;;6.70;6.20;;;15.90;79.20;;;16.82;42.56;97137.66;5279908;28;20261;-53
2022/04/21 09:48:54;;;;;;;6.80;6.20;;;16.20;79.40;;;16.66;43.52;97133.84;5273932;28;20581;-50
2022/04/21 09:51:29;;;;;;;6.82;6.30;;;16.10;80.30;;;16.99;42.04;97126.81;5275426;28;20772;-54
2022/04/21 09:54:05;;;;;;;6.78;6.28;;;16.50;78.90;;;17.16;41.29;97130.59;5273344;27;20453;-52
2022/04/21 09:56:41;;;;;;;5.97;5.50;;;16.70;77.60;;;17.21;39.81;97122.94;5277757;28;20234;-54
2022/04/21 09:59:14;;;;;;;6.00;5.60;;;16.70;75.10;;;17.38;40.11;97121.53;5272268;28;20258;-51
2022/04/21 10:01:50;;;;;;;5.68;5.28;;;16.60;77.00;;;17.57;41.35;97120.16;5281845;28;20637;-50
2022/04/21 10:04:24;;;;;;;5.93;5.53;;;17.00;77.40;;;17.47;39.72;97111.38;5274897;28;20604;-51
2022/04/21 10:06:58;;;;;;;4.80;4.47;;;17.00;75.80;;;17.41;40.17;97113.84;5273534;28;20749;-50
2022/04/21 10:09:33;;;;;;;4.15;3.85;;;17.00;74.90;;;17.82;43.55;97121.47;5280515;27;20198;-51
2022/04/21 10:12:08;;;;;;;4.50;4.20;;;17.40;80.40;;;17.54;40.65;97117.50;5272532;28;20548;-57
2022/04/21 10:14:41;;;;;;;4.88;4.57;;;16.90;77.30;;;17.56;40.50;97103.78;5274021;28;20248;-53
2022/04/21 10:17:14;;;;;;;5.15;4.85;;;16.90;76.30;;;17.89;39.96;97104.38;5274316;28;20307;-54
2022/04/21 10:19:51;;;;;;;4.60;4.30;;;17.30;75.50;;;18.17;39.43;97103.06;5278634;28;20675;-52
2022/04/21 10:22:34;;;;;;;3.63;3.42;;;17.60;75.80;;;18.36;38.86;97102.47;5276300;27;20191;-53
2022/04/21 10:25:10;;;;;;;4.65;4.35;;;17.90;74.40;;;18.25;38.26;97101.44;5283535;28;20295;-54
2022/04/21 10:27:46;;;;;;;4.22;3.95;;;17.70;73.60;;;18.11;38.13;97101.25;5281823;28;20770;-51
2022/04/21 10:30:23;;;;;;;3.92;3.67;;;17.20;74.20;;;17.84;38.76;97091.34;5270309;28;20237;-55
2022/04/21 10:32:58;;;;;;;4.15;3.85;;;17.10;74.10;;;17.68;38.55;97090.19;5280179;28;20199;-53
2022/04/21 10:35:49;;;;;;;4.28;3.97;;;17.10;73.60;;;17.81;39.05;97086.13;5287670;27;20244;-54
2022/04/21 10:38:26;;;;;;;4.55;4.25;;;17.30;74.60;;;17.78;38.83;97086.09;5274987;27;20242;-55
2022/04/21 10:41:06;;;;;;;4.50;4.20;;;17.10;74.60;;;17.89;39.94;97079.38;5279331;28;20326;-53
2022/04/21 10:44:04;;;;;;;4.45;4.15;;;17.30;75.30;;;17.61;39.36;97082.31;5276131;28;20314;-54
2022/04/21 10:46:37;;;;;;;3.20;3.00;;;17.00;74.70;;;17.41;37.87;97069.94;5260362;28;20785;-50
2022/04/21 10:49:55;;;;;;;2.67;2.50;;;16.90;71.80;;;17.68;37.74;97071.22;5284184;28;20203;-50
2022/04/21 10:58:52;;;;;;;3.58;3.38;;;16.70;71.60;;;17.11;38.07;97045.31;5279554;27;20290;-53
2022/04/21 11:01:31;;;;;;;3.40;3.20;;;16.50;72.30;;;16.83;39.33;97038.75;5274181;28;20573;-51
2022/04/21 11:04:20;;;;;;;3.65;3.40;;;16.30;73.70;;;16.89;39.05;97061.22;5265518;28;20592;-52
2022/04/21 11:07:11;;;;;;;3.55;3.35;;;16.30;73.40;;;16.51;39.53;97061.31;5269809;28;20604;-50
2022/04/21 11:09:48;;;;;;;4.07;3.78;;;15.90;74.90;;;16.60;40.27;97056.31;5271401;28;20654;-51
2022/04/21 11:12:50;;;;;;;4.75;4.45;;;15.90;75.90;;;16.38;41.11;97041.25;5273905;28;20207;-52
2022/04/21 11:15:39;;;;;;;4.07;3.75;;;15.90;76.00;;;16.27;41.96;97046.16;5275024;28;20880;-52
2022/04/21 11:18:15;;;;;;;4.95;4.65;;;15.90;76.90;;;16.47;40.23;97046.59;5274423;28;20204;-53
2022/04/21 11:20:49;;;;;;;4.60;4.30;;;15.90;75.30;;;16.50;39.56;97038.91;5280480;27;20932;-52
2022/04/21 11:23:24;;;;;;;3.53;3.33;;;16.00;74.10;;;16.58;40.30;97046.81;5282326;28;20222;-55
2022/04/21 11:26:04;;;;;;;4.18;3.88;;;16.10;75.50;;;16.56;40.64;97039.03;5278462;28;20268;-51